Time;durP1;ratioP1;P1;durP2;ratioP2;P2;SDS_P1;SDS_P2;PMS_P1;PMS_P2;Temp;Humidity;BMP_temperature;BMP_pressure;BME280_temperature;BME280_humidity;BME280_pressure;Samples;Min_cycle;Max_cycle;Signal;HPM_P1;HPM_P2
2022/05/28 00:00:12;;;;;;;9.88;6.40;;;19.90;69.60;;;;;;5093829;28;20104;-12
2022/05/28 00:02:38;;;;;;;10.80;6.57;;;19.90;69.80;;;;;;5093480;28;20023;-12
2022/05/28 00:05:06;;;;;;;11.02;6.30;;;19.90;69.90;;;;;;5093922;28;20119;-12
2022/05/28 00:07:32;;;;;;;10.35;5.65;;;19.90;70.00;;;;;;5093639;28;20391;-12
2022/05/28 00:09:58;;;;;;;12.45;6.47;;;19.80;70.10;;;;;;5093821;28;20024;-11
2022/05/28 00:12:28;;;;;;;14.30;7.00;;;19.90;70.40;;;;;;5093430;28;20024;-12
2022/05/28 00:14:56;;;;;;;11.55;6.40;;;19.80;70.50;;;;;;5093959;28;20036;-11
2022/05/28 00:17:23;;;;;;;8.38;6.13;;;19.70;70.60;;;;;;5093469;28;20107;-13
2022/05/28 00:19:50;;;;;;;10.27;6.10;;;19.70;70.70;;;;;;5093681;28;20051;-13
2022/05/28 00:22:17;;;;;;;9.43;6.15;;;19.60;70.80;;;;;;5093301;28;20028;-13
2022/05/28 00:24:43;;;;;;;10.95;6.63;;;19.60;71.00;;;;;;5093316;28;20028;-11
2022/05/28 00:27:09;;;;;;;10.65;7.18;;;19.60;71.10;;;;;;5093401;28;20039;-12
2022/05/28 00:29:35;;;;;;;10.27;6.68;;;19.60;71.40;;;;;;5093459;28;20019;-11
2022/05/28 00:32:01;;;;;;;11.23;6.80;;;19.50;71.50;;;;;;5093452;28;20036;-11
2022/05/28 00:34:27;;;;;;;10.38;6.80;;;19.50;71.60;;;;;;5093079;28;20384;-13
2022/05/28 00:36:53;;;;;;;13.18;6.65;;;19.40;71.70;;;;;;5093980;28;20020;-12
2022/05/28 00:39:19;;;;;;;10.70;6.65;;;19.40;71.80;;;;;;5093191;28;20017;-12
2022/05/28 00:41:45;;;;;;;10.05;6.15;;;19.30;72.00;;;;;;5093489;28;20023;-12
2022/05/28 00:44:12;;;;;;;10.57;6.00;;;19.20;72.40;;;;;;5093287;28;20125;-12
2022/05/28 00:46:41;;;;;;;9.93;6.63;;;19.20;72.30;;;;;;5093445;28;20077;-12
2022/05/28 00:49:13;;;;;;;11.43;7.22;;;19.20;72.50;;;;;;5093580;28;20024;-12
2022/05/28 00:51:44;;;;;;;15.57;7.57;;;19.20;72.80;;;;;;5093265;28;20034;-13
2022/05/28 00:54:12;;;;;;;11.63;6.63;;;19.20;72.80;;;;;;5093178;28;20062;-12
2022/05/28 00:56:39;;;;;;;11.82;6.57;;;19.10;72.80;;;;;;5092997;28;20028;-11
2022/05/28 00:59:06;;;;;;;13.25;7.60;;;19.10;72.80;;;;;;5093108;28;20382;-12
2022/05/28 01:01:35;;;;;;;13.45;6.97;;;19.10;73.10;;;;;;5093294;28;20020;-12
2022/05/28 01:04:10;;;;;;;14.80;7.38;;;19.00;73.00;;;;;;5075164;28;20028;-11
2022/05/28 01:06:41;;;;;;;12.82;7.72;;;19.00;73.10;;;;;;5093448;28;20101;-12
2022/05/28 01:09:19;;;;;;;12.98;7.90;;;19.10;73.20;;;;;;5091862;28;20103;-12
2022/05/28 01:12:10;;;;;;;14.23;8.13;;;19.00;73.50;;;;;;5093358;28;20020;-12
2022/05/28 01:14:42;;;;;;;10.27;6.80;;;19.00;73.50;;;;;;5092765;28;20111;-11
2022/05/28 01:17:35;;;;;;;13.88;8.57;;;19.00;73.30;;;;;;5093137;28;20027;-11
2022/05/28 01:20:22;;;;;;;15.65;10.02;;;19.00;73.50;;;;;;5092902;28;20491;-12
2022/05/28 01:22:55;;;;;;;14.27;8.55;;;19.00;74.10;;;;;;5092941;28;20376;-12
2022/05/28 01:25:26;;;;;;;;;;;19.00;73.70;;;;;;5093558;28;20115;-12
2022/05/28 01:28:03;;;;;;;16.60;11.02;;;19.00;74.00;;;;;;5093156;28;19904;-12
2022/05/28 01:30:30;;;;;;;13.85;9.00;;;19.00;73.40;;;;;;5091485;28;20024;-12
2022/05/28 01:32:58;;;;;;;13.65;8.10;;;19.00;73.50;;;;;;5092703;28;20497;-12
2022/05/28 01:35:26;;;;;;;13.55;7.70;;;19.00;73.60;;;;;;5093056;28;20024;-12
2022/05/28 01:37:52;;;;;;;15.18;9.60;;;19.10;73.50;;;;;;5093054;28;20079;-12
2022/05/28 01:40:22;;;;;;;19.45;11.80;;;19.00;74.00;;;;;;5093111;28;20058;-11
2022/05/28 01:42:52;;;;;;;21.58;12.90;;;19.00;74.00;;;;;;5092678;28;20028;-12
2022/05/28 01:45:22;;;;;;;16.00;10.48;;;18.90;74.30;;;;;;5092685;28;20040;-12
2022/05/28 01:47:51;;;;;;;16.17;11.07;;;18.90;74.60;;;;;;5092520;28;20016;-12
2022/05/28 01:50:21;;;;;;;16.15;10.25;;;18.80;74.50;;;;;;5092440;28;20480;-12
2022/05/28 01:52:48;;;;;;;18.45;12.68;;;18.80;74.60;;;;;;5095539;28;20047;-12
2022/05/28 01:55:19;;;;;;;14.98;9.82;;;18.80;74.90;;;;;;5096461;28;20031;-11
2022/05/28 01:57:45;;;;;;;22.95;16.27;;;18.80;74.90;;;;;;5096242;28;20023;-12
2022/05/28 02:00:12;;;;;;;18.33;12.95;;;18.80;75.10;;;;;;5096156;28;20448;-12
2022/05/28 02:02:38;;;;;;;19.48;13.07;;;18.80;75.50;;;;;;5096099;28;20020;-11
2022/05/28 02:05:05;;;;;;;23.63;14.80;;;18.80;75.50;;;;;;5096003;28;20032;-11
2022/05/28 02:07:32;;;;;;;22.58;15.27;;;18.80;75.40;;;;;;5096359;28;20028;-12
2022/05/28 02:10:08;;;;;;;20.23;14.07;;;18.80;75.50;;;;;;5096306;28;20028;-10
2022/05/28 02:13:11;;;;;;;18.45;13.30;;;18.80;75.60;;;;;;5095728;28;20478;-13
2022/05/28 02:15:48;;;;;;;21.30;13.82;;;18.80;76.80;;;;;;5093978;28;20462;-11
2022/05/28 02:18:32;;;;;;;19.85;15.30;;;18.80;75.70;;;;;;5095957;28;20093;-11
2022/05/28 02:21:09;;;;;;;;;;;18.90;75.80;;;;;;5096530;28;20132;-12
2022/05/28 02:23:56;;;;;;;16.98;12.05;;;18.90;76.70;;;;;;5095689;28;19995;-12
2022/05/28 02:26:30;;;;;;;23.08;15.82;;;18.80;75.40;;;;;;5095856;28;20035;-12
2022/05/28 02:28:58;;;;;;;25.83;18.17;;;18.80;75.70;;;;;;5096021;28;20020;-12
2022/05/28 02:31:31;;;;;;;18.33;14.15;;;18.80;76.10;;;;;;5095789;28;20115;-13
2022/05/28 02:33:58;;;;;;;20.27;13.65;;;18.90;76.00;;;;;;5095848;28;20024;-13
2022/05/28 02:36:25;;;;;;;19.92;12.93;;;18.90;76.00;;;;;;5095369;28;20028;-12
2022/05/28 02:38:52;;;;;;;17.80;13.77;;;18.80;76.00;;;;;;5095493;28;20024;-11
2022/05/28 02:41:19;;;;;;;18.35;12.80;;;18.80;76.00;;;;;;5095367;28;20506;-12
2022/05/28 02:43:46;;;;;;;18.67;13.50;;;18.70;76.20;;;;;;5095279;28;20052;-13
2022/05/28 02:46:12;;;;;;;20.20;15.02;;;18.70;76.20;;;;;;5094047;28;20170;-12
2022/05/28 02:48:39;;;;;;;22.60;14.57;;;18.70;76.90;;;;;;5094917;28;20031;-13
2022/05/28 02:51:10;;;;;;;18.88;12.85;;;18.60;76.70;;;;;;5095256;28;20073;-12
2022/05/28 02:53:37;;;;;;;19.05;13.73;;;18.60;76.60;;;;;;5095207;28;20103;-11
2022/05/28 02:56:03;;;;;;;19.73;13.63;;;18.60;76.80;;;;;;5095725;28;20027;-12
2022/05/28 02:58:30;;;;;;;20.73;15.02;;;18.60;76.90;;;;;;5094964;28;20031;-12
2022/05/28 03:00:57;;;;;;;24.48;15.82;;;18.60;77.00;;;;;;5095326;28;20035;-11
2022/05/28 03:03:23;;;;;;;29.02;18.25;;;18.60;77.10;;;;;;5095043;28;20412;-21
2022/05/28 03:05:51;;;;;;;22.63;15.18;;;18.50;77.20;;;;;;5094861;28;20028;-10
2022/05/28 03:08:18;;;;;;;32.70;18.23;;;18.50;77.40;;;;;;5094636;28;20028;-11
2022/05/28 03:10:45;;;;;;;31.52;20.55;;;18.40;77.50;;;;;;5095101;28;20468;-11
2022/05/28 03:13:11;;;;;;;28.63;19.30;;;18.40;77.80;;;;;;5094975;28;20025;-12
2022/05/28 03:15:38;;;;;;;28.45;19.70;;;18.40;78.10;;;;;;5094705;28;20432;-10
2022/05/28 03:18:04;;;;;;;20.65;14.50;;;18.40;78.60;;;;;;5094573;28;20479;-12
2022/05/28 03:20:30;;;;;;;23.75;13.75;;;18.40;78.70;;;;;;5094767;28;20028;-11
2022/05/28 03:22:57;;;;;;;28.80;18.45;;;18.40;78.70;;;;;;5094801;28;20047;-11
2022/05/28 03:25:24;;;;;;;26.23;18.38;;;18.40;78.90;;;;;;5094752;28;20050;-12
2022/05/28 03:27:50;;;;;;;19.00;14.00;;;18.40;78.60;;;;;;5094717;28;20020;-11
2022/05/28 03:30:17;;;;;;;29.13;19.02;;;18.40;78.50;;;;;;5094321;28;20110;-12
2022/05/28 03:32:43;;;;;;;24.17;14.00;;;18.50;78.40;;;;;;5094966;28;20372;-11
2022/05/28 03:35:09;;;;;;;24.33;15.60;;;18.50;78.60;;;;;;5094717;28;20106;-11
2022/05/28 03:37:36;;;;;;;20.85;12.70;;;18.50;78.30;;;;;;5094244;28;20024;-12
2022/05/28 03:40:03;;;;;;;18.05;12.18;;;18.50;78.10;;;;;;5094389;28;20032;-10
2022/05/28 03:42:30;;;;;;;16.40;11.40;;;18.50;78.20;;;;;;5093952;28;20020;-11
2022/05/28 03:44:56;;;;;;;17.70;12.23;;;18.40;78.20;;;;;;5093831;28;20442;-10
2022/05/28 03:47:22;;;;;;;23.33;15.90;;;18.40;78.20;;;;;;5094211;28;20483;-12
2022/05/28 03:49:47;;;;;;;20.05;13.27;;;18.40;78.30;;;;;;5093190;28;20024;-11
2022/05/28 03:52:16;;;;;;;21.63;13.68;;;18.40;78.40;;;;;;5094426;28;20440;-11
2022/05/28 03:54:45;;;;;;;20.65;12.85;;;18.40;78.40;;;;;;5094486;28;20069;-11
2022/05/28 03:57:20;;;;;;;19.85;13.07;;;18.40;78.40;;;;;;5093923;28;20024;-11
2022/05/28 03:59:46;;;;;;;26.38;15.50;;;18.50;78.60;;;;;;5094211;28;20111;-11
2022/05/28 04:02:13;;;;;;;17.75;12.55;;;18.50;79.30;;;;;;5093726;28;20436;-11
2022/05/28 04:04:39;;;;;;;22.30;13.88;;;18.60;79.10;;;;;;5093982;28;20070;-11
2022/05/28 04:07:05;;;;;;;18.92;13.75;;;18.60;79.10;;;;;;5094308;28;20056;-12
2022/05/28 04:09:31;;;;;;;21.70;16.20;;;18.70;78.70;;;;;;5093632;28;20043;-12
2022/05/28 04:11:57;;;;;;;20.08;13.35;;;18.70;78.60;;;;;;5093706;28;20020;-12
2022/05/28 04:14:23;;;;;;;23.60;15.02;;;18.70;78.50;;;;;;5092987;28;20028;-12
2022/05/28 04:16:49;;;;;;;21.80;14.82;;;18.80;78.90;;;;;;5093760;28;20020;-12
2022/05/28 04:19:15;;;;;;;21.38;14.65;;;18.80;79.40;;;;;;5094142;28;20426;-12
2022/05/28 04:21:41;;;;;;;23.40;15.75;;;18.80;79.40;;;;;;5093854;28;20475;-11
2022/05/28 04:24:07;;;;;;;32.58;21.52;;;18.90;79.50;;;;;;5092485;28;20036;-10
2022/05/28 04:26:33;;;;;;;27.85;18.60;;;18.90;81.10;;;;;;5093297;28;20388;-12
2022/05/28 04:28:59;;;;;;;29.02;18.83;;;19.00;80.30;;;;;;5093432;28;20023;-12
2022/05/28 04:31:26;;;;;;;23.35;14.88;;;19.00;79.80;;;;;;5093708;28;20035;-11
2022/05/28 04:33:52;;;;;;;29.40;18.63;;;19.10;79.50;;;;;;5093584;28;20036;-10
2022/05/28 04:36:18;;;;;;;21.23;15.75;;;19.20;79.70;;;;;;5093285;28;20073;-13
2022/05/28 04:38:44;;;;;;;24.45;17.98;;;19.20;79.40;;;;;;5093478;28;20431;-11
2022/05/28 04:41:10;;;;;;;21.70;15.43;;;19.30;79.20;;;;;;5093625;28;20562;-11
2022/05/28 04:43:37;;;;;;;23.92;16.95;;;19.30;79.50;;;;;;5093191;28;20035;-11
2022/05/28 04:46:02;;;;;;;25.33;17.45;;;19.40;79.90;;;;;;5092219;28;20060;-10
2022/05/28 04:48:28;;;;;;;32.03;20.20;;;19.40;79.10;;;;;;5092849;28;20137;-12
2022/05/28 04:50:54;;;;;;;30.33;20.45;;;19.60;80.00;;;;;;5093506;28;20065;-11
2022/05/28 04:53:23;;;;;;;24.63;16.77;;;19.70;79.50;;;;;;5093191;28;20496;-11
2022/05/28 04:55:49;;;;;;;26.63;17.77;;;19.80;79.20;;;;;;5093403;28;20032;-12
2022/05/28 04:58:15;;;;;;;25.33;18.30;;;19.90;79.40;;;;;;5091588;28;20040;-12
2022/05/28 05:00:43;;;;;;;32.38;21.08;;;19.90;79.00;;;;;;5093029;28;20051;-12
2022/05/28 05:03:09;;;;;;;26.80;18.40;;;20.00;79.90;;;;;;5093211;28;20024;-11
2022/05/28 05:05:35;;;;;;;25.83;18.27;;;20.10;79.20;;;;;;5093020;28;20031;-12
2022/05/28 05:08:01;;;;;;;27.48;18.83;;;20.20;79.40;;;;;;5092947;28;20035;-12
2022/05/28 05:10:27;;;;;;;31.75;20.48;;;20.30;79.00;;;;;;5092715;28;20035;-13
2022/05/28 05:12:53;;;;;;;25.05;18.52;;;20.40;78.60;;;;;;5093397;28;20033;-13
2022/05/28 05:15:20;;;;;;;35.13;23.50;;;20.40;78.60;;;;;;5091696;28;20023;-13
2022/05/28 05:17:46;;;;;;;25.73;18.63;;;20.50;79.20;;;;;;5092818;28;20036;-13
2022/05/28 05:20:13;;;;;;;29.20;18.80;;;20.60;78.70;;;;;;5092924;28;20028;-13
2022/05/28 05:22:40;;;;;;;28.38;20.33;;;20.60;79.00;;;;;;5091680;28;20494;-13
2022/05/28 05:25:07;;;;;;;30.60;20.80;;;20.70;78.80;;;;;;5092782;28;20028;-13
2022/05/28 05:27:33;;;;;;;31.60;21.40;;;20.80;79.10;;;;;;5095146;28;20032;-12
2022/05/28 05:29:59;;;;;;;35.58;23.55;;;20.90;78.50;;;;;;5096968;28;20035;-12
2022/05/28 05:32:26;;;;;;;25.90;18.80;;;21.00;78.40;;;;;;5095140;28;20042;-12
2022/05/28 05:34:52;;;;;;;30.33;22.30;;;21.10;78.30;;;;;;5096955;28;20028;-13
2022/05/28 05:37:19;;;;;;;29.42;18.60;;;21.20;77.90;;;;;;5097226;28;20020;-13
2022/05/28 05:39:45;;;;;;;29.63;21.63;;;21.40;77.50;;;;;;5096949;28;20529;-13
2022/05/28 05:42:11;;;;;;;36.75;25.75;;;21.50;77.10;;;;;;5096800;28;20032;-13
2022/05/28 05:44:38;;;;;;;37.17;24.42;;;21.50;78.40;;;;;;5096074;28;20040;-13
2022/05/28 05:47:06;;;;;;;29.83;19.13;;;21.60;77.50;;;;;;5096617;28;20426;-12
2022/05/28 05:49:32;;;;;;;32.10;21.67;;;21.70;77.30;;;;;;5095209;28;20440;-14
2022/05/28 05:51:59;;;;;;;29.40;21.20;;;21.90;77.10;;;;;;5096352;28;20055;-13
2022/05/28 05:54:25;;;;;;;35.60;21.70;;;22.00;77.00;;;;;;5095034;28;20107;-13
2022/05/28 05:56:52;;;;;;;24.65;17.25;;;22.00;77.20;;;;;;5096275;28;20073;-14
2022/05/28 05:59:19;;;;;;;35.78;21.48;;;22.10;76.60;;;;;;5096210;28;20115;-13
2022/05/28 06:01:45;;;;;;;32.97;22.73;;;22.20;76.60;;;;;;5096022;28;20028;-13
2022/05/28 06:04:10;;;;;;;27.85;19.45;;;22.30;77.30;;;;;;5096035;28;20035;-13
2022/05/28 06:06:36;;;;;;;30.80;18.02;;;22.40;76.50;;;;;;5096154;28;20040;-12
2022/05/28 06:09:03;;;;;;;31.60;18.80;;;22.50;76.20;;;;;;5095987;28;20032;-13
2022/05/28 06:11:29;;;;;;;24.40;16.92;;;22.60;76.30;;;;;;5096300;28;20066;-13
2022/05/28 06:13:55;;;;;;;34.35;20.70;;;22.70;75.80;;;;;;5095892;28;20027;-13
2022/05/28 06:16:21;;;;;;;24.40;16.13;;;22.90;75.90;;;;;;5096122;28;20032;-12
2022/05/28 06:18:47;;;;;;;26.27;16.98;;;23.00;75.00;;;;;;5095806;28;20020;-13
2022/05/28 06:21:13;;;;;;;32.88;19.40;;;23.10;75.00;;;;;;5095681;28;20107;-13
2022/05/28 06:23:41;;;;;;;29.85;18.98;;;23.20;74.90;;;;;;5096043;28;20107;-11
2022/05/28 06:26:08;;;;;;;27.90;18.92;;;23.20;74.10;;;;;;5095783;28;20028;-11
2022/05/28 06:28:35;;;;;;;22.45;16.80;;;23.20;73.80;;;;;;5095518;28;20032;-11
2022/05/28 06:31:07;;;;;;;26.38;16.40;;;23.30;74.00;;;;;;5095911;28;20082;-11
2022/05/28 06:33:37;;;;;;;25.73;15.97;;;23.50;73.90;;;;;;5095807;28;20020;-11
2022/05/28 06:36:05;;;;;;;22.17;14.38;;;23.60;73.70;;;;;;5095511;28;20031;-12
2022/05/28 06:38:32;;;;;;;19.08;14.05;;;23.70;73.30;;;;;;5094959;28;20506;-12
2022/05/28 06:40:58;;;;;;;23.45;14.30;;;23.90;72.60;;;;;;5095390;28;20028;-11
2022/05/28 06:43:24;;;;;;;24.77;16.08;;;23.90;71.80;;;;;;5095207;28;20111;-14
2022/05/28 06:45:50;;;;;;;26.60;16.75;;;24.00;70.60;;;;;;5095453;28;20054;-12
2022/05/28 06:48:16;;;;;;;28.05;17.25;;;24.00;70.10;;;;;;5095052;28;20028;-11
2022/05/28 06:51:01;;;;;;;21.45;14.68;;;24.10;69.70;;;;;;5095549;28;20028;-12
2022/05/28 06:53:54;;;;;;;21.65;14.48;;;24.20;69.70;;;;;;5095877;28;20052;-13
2022/05/28 06:56:20;;;;;;;25.95;16.55;;;24.20;69.50;;;;;;5092544;28;20047;-12
2022/05/28 06:58:47;;;;;;;21.52;15.40;;;24.20;69.50;;;;;;5093814;28;20036;-13
2022/05/28 07:01:15;;;;;;;24.95;17.02;;;24.20;68.90;;;;;;5094985;28;20066;-11
2022/05/28 07:03:43;;;;;;;30.10;17.10;;;24.20;68.70;;;;;;5095614;28;20028;-12
2022/05/28 07:06:11;;;;;;;22.70;16.10;;;24.10;68.80;;;;;;5094912;28;20449;-11
2022/05/28 07:08:37;;;;;;;23.63;16.35;;;24.10;69.00;;;;;;5094686;28;20040;-13
2022/05/28 07:11:05;;;;;;;24.83;17.38;;;24.10;68.70;;;;;;5095453;28;20028;-12
2022/05/28 07:13:32;;;;;;;22.25;15.82;;;24.10;67.60;;;;;;5094755;28;20064;-11
2022/05/28 07:15:58;;;;;;;24.52;16.65;;;24.00;67.80;;;;;;5095041;28;20044;-11
2022/05/28 07:18:25;;;;;;;20.75;15.32;;;24.00;68.20;;;;;;5094447;28;20428;-11
2022/05/28 07:20:50;;;;;;;23.80;16.58;;;24.10;68.50;;;;;;5094617;28;20026;-11
2022/05/28 07:23:25;;;;;;;24.98;15.23;;;24.10;68.30;;;;;;5094594;28;20020;-11
2022/05/28 07:26:04;;;;;;;20.90;13.88;;;24.20;67.70;;;;;;5094883;28;20036;-11
2022/05/28 07:28:33;;;;;;;17.52;11.15;;;24.50;65.50;;;;;;5094615;28;20111;-12
2022/05/28 07:31:01;;;;;;;20.42;10.60;;;24.90;63.10;;;;;;5094456;28;20111;-12
2022/05/28 07:33:32;;;;;;;17.70;9.38;;;25.40;60.90;;;;;;5094398;28;20016;-11
2022/05/28 07:35:59;;;;;;;19.20;9.38;;;25.90;59.00;;;;;;5094455;28;20395;-12
2022/05/28 07:38:26;;;;;;;18.27;8.68;;;26.20;56.30;;;;;;5092871;28;20036;-11
2022/05/28 07:40:53;;;;;;;15.98;8.77;;;26.30;54.10;;;;;;5094717;28;20434;-13
2022/05/28 07:43:19;;;;;;;13.10;8.40;;;26.30;54.90;;;;;;5093271;28;20481;-12
2022/05/28 07:45:46;;;;;;;13.88;8.55;;;26.30;53.10;;;;;;5094374;28;20032;-11
2022/05/28 07:48:14;;;;;;;17.33;9.13;;;26.30;53.80;;;;;;5093993;28;20441;-11
2022/05/28 07:50:41;;;;;;;16.88;8.77;;;26.30;54.10;;;;;;5093334;28;20051;-12
2022/05/28 07:53:08;;;;;;;15.85;9.65;;;26.30;55.70;;;;;;5092835;28;20111;-11
2022/05/28 07:55:35;;;;;;;17.60;10.20;;;26.40;54.60;;;;;;5094026;28;20050;-11
2022/05/28 07:58:12;;;;;;;15.57;9.93;;;26.40;54.80;;;;;;5094330;28;20048;-11
2022/05/28 08:00:41;;;;;;;13.43;9.80;;;26.40;55.60;;;;;;5093736;28;20380;-11
2022/05/28 08:03:08;;;;;;;17.08;10.07;;;26.50;55.90;;;;;;5094086;28;20032;-12
2022/05/28 08:05:36;;;;;;;16.88;10.27;;;26.40;55.90;;;;;;5093966;28;20062;-11
2022/05/28 08:08:03;;;;;;;15.27;9.10;;;26.40;55.90;;;;;;5094073;28;20028;-12
2022/05/28 08:10:29;;;;;;;14.90;8.93;;;26.50;55.40;;;;;;5093498;28;20024;-12
2022/05/28 08:13:04;;;;;;;18.77;9.40;;;26.50;55.60;;;;;;5093681;28;20028;-12
2022/05/28 08:15:30;;;;;;;12.15;7.88;;;26.30;56.50;;;;;;5093731;28;20039;-11
2022/05/28 08:17:57;;;;;;;10.45;6.97;;;26.20;55.40;;;;;;5093869;28;20020;-11
2022/05/28 08:23:08;;;;;;;12.15;6.75;;;26.00;54.70;;;;;;5093355;28;20039;-11
2022/05/28 08:23:09;;;;;;;15.40;7.03;;;25.90;55.40;;;;;;5093747;28;20031;-13
2022/05/28 08:25:37;;;;;;;11.45;6.95;;;25.80;56.50;;;;;;5093571;28;20032;-13
2022/05/28 08:28:03;;;;;;;17.02;7.38;;;25.60;57.80;;;;;;5093800;28;20059;-12
2022/05/28 08:30:29;;;;;;;24.83;10.20;;;25.30;60.20;;;;;;5093306;28;20062;-13
2022/05/28 08:32:55;;;;;;;17.70;10.68;;;24.90;66.30;;;;;;5093635;28;20028;-12
2022/05/28 08:35:21;;;;;;;14.52;10.20;;;24.30;67.20;;;;;;5093720;28;20054;-12
2022/05/28 08:37:47;;;;;;;18.85;10.05;;;23.70;69.90;;;;;;5094228;28;20032;-12
2022/05/28 08:40:14;;;;;;;15.18;10.02;;;23.10;70.00;;;;;;5093332;28;20024;-12
2022/05/28 08:42:41;;;;;;;19.58;10.20;;;22.50;71.50;;;;;;5093182;28;20028;-12
2022/05/28 08:45:10;;;;;;;14.45;9.77;;;22.40;71.40;;;;;;5093179;28;20560;-12
2022/05/28 08:47:41;;;;;;;18.98;10.68;;;22.40;71.10;;;;;;5093163;28;20032;-12
2022/05/28 08:50:08;;;;;;;15.68;11.65;;;22.40;72.00;;;;;;5093775;28;20039;-11
2022/05/28 08:52:48;;;;;;;21.35;12.45;;;22.40;72.70;;;;;;5093268;28;21036;-13
2022/05/28 08:55:20;;;;;;;20.40;12.80;;;22.40;74.20;;;;;;5093545;28;20043;-12
2022/05/28 08:58:05;;;;;;;18.35;12.10;;;22.30;74.50;;;;;;5093524;28;20025;-12
2022/05/28 09:00:38;;;;;;;19.23;12.45;;;22.30;74.50;;;;;;5093903;28;20059;-11
2022/05/28 09:03:12;;;;;;;21.27;12.43;;;22.40;73.80;;;;;;5097916;28;20029;-12
2022/05/28 09:05:56;;;;;;;;;;;22.40;73.60;;;;;;5097972;28;20064;-12
2022/05/28 09:08:44;;;;;;;19.13;12.00;;;22.50;74.10;;;;;;5096974;28;19903;-11
2022/05/28 09:11:16;;;;;;;19.15;12.23;;;22.70;75.20;;;;;;5097520;28;20024;-11
2022/05/28 09:13:51;;;;;;;20.25;11.70;;;22.90;73.40;;;;;;5097120;28;20387;-12
2022/05/28 09:16:30;;;;;;;18.58;11.38;;;23.20;72.80;;;;;;5096952;28;20028;-12
2022/05/28 09:19:02;;;;;;;20.85;13.00;;;23.50;71.40;;;;;;5095631;28;20028;-11
2022/05/28 09:21:28;;;;;;;22.85;12.60;;;23.70;72.40;;;;;;5097375;28;20024;-12
2022/05/28 09:24:20;;;;;;;17.88;11.32;;;23.70;70.70;;;;;;5097222;28;20069;-12
2022/05/28 09:26:57;;;;;;;15.75;11.65;;;23.80;69.90;;;;;;5097932;28;20024;-12
2022/05/28 09:29:23;;;;;;;16.55;11.45;;;23.80;70.80;;;;;;5097109;28;20024;-12
2022/05/28 09:32:01;;;;;;;19.02;11.60;;;23.60;70.40;;;;;;5096771;28;20097;-11
2022/05/28 09:34:36;;;;;;;15.05;10.15;;;23.50;70.50;;;;;;5096541;28;20107;-12
2022/05/28 09:37:12;;;;;;;14.90;9.90;;;23.40;69.70;;;;;;5096735;28;20024;-11
2022/05/28 09:39:49;;;;;;;21.10;9.55;;;23.30;69.80;;;;;;5096589;28;20028;-12
2022/05/28 09:42:47;;;;;;;12.98;8.57;;;23.20;69.40;;;;;;5096827;28;20035;-11
2022/05/28 09:45:29;;;;;;;17.95;8.00;;;23.10;68.90;;;;;;5096216;28;20080;-11
2022/05/28 09:47:55;;;;;;;11.95;7.13;;;22.90;69.30;;;;;;5096421;28;20024;-11
2022/05/28 09:50:30;;;;;;;13.18;7.13;;;22.90;69.60;;;;;;5096256;28;20020;-11
2022/05/28 09:56:02;;;;;;;15.25;6.57;;;22.90;69.80;;;;;;5096694;28;20522;-13
2022/05/28 09:58:31;;;;;;;12.63;7.40;;;22.90;70.10;;;;;;5096407;28;20028;-11
2022/05/28 10:01:18;;;;;;;10.60;6.35;;;22.90;70.60;;;;;;5096507;28;20089;-11
2022/05/28 10:06:31;;;;;;;10.57;7.15;;;22.90;70.80;;;;;;5096259;28;20097;-11
2022/05/28 10:08:58;;;;;;;13.20;7.10;;;22.90;70.60;;;;;;5096407;28;20022;-12
2022/05/28 10:11:24;;;;;;;11.20;6.93;;;23.00;70.50;;;;;;5096341;28;20027;-12
2022/05/28 10:13:53;;;;;;;9.23;5.93;;;23.10;70.20;;;;;;5095538;28;20097;-12
2022/05/28 10:16:34;;;;;;;8.77;4.85;;;23.00;67.30;;;;;;5096294;28;20073;-14
2022/05/28 10:19:00;;;;;;;8.65;5.05;;;22.90;64.00;;;;;;5095826;28;20024;-12
2022/05/28 10:21:33;;;;;;;9.95;4.97;;;22.90;64.50;;;;;;5095785;28;20024;-12
2022/05/28 10:24:03;;;;;;;7.68;5.10;;;22.90;64.90;;;;;;5096182;28;20024;-11
2022/05/28 10:26:39;;;;;;;10.93;5.03;;;22.80;64.30;;;;;;5095879;28;20067;-12
2022/05/28 10:29:14;;;;;;;7.93;4.25;;;22.90;65.20;;;;;;5095721;28;20020;-11
2022/05/28 10:31:40;;;;;;;7.68;4.40;;;23.00;63.90;;;;;;5095663;28;20025;-11
2022/05/28 10:34:20;;;;;;;9.15;4.80;;;23.20;62.40;;;;;;5095702;28;20066;-11
2022/05/28 10:36:46;;;;;;;9.65;4.60;;;23.10;63.40;;;;;;5095913;28;20024;-11
2022/05/28 10:39:17;;;;;;;8.90;4.63;;;23.10;63.40;;;;;;5095700;28;20181;-12
2022/05/28 10:41:44;;;;;;;6.72;4.10;;;23.10;63.10;;;;;;5095785;28;20027;-11
2022/05/28 10:44:15;;;;;;;7.18;4.22;;;23.00;62.30;;;;;;5095092;28;20051;-12
2022/05/28 10:47:17;;;;;;;9.38;4.20;;;22.90;63.60;;;;;;5095910;28;20039;-12
2022/05/28 10:49:45;;;;;;;8.48;4.10;;;22.80;63.20;;;;;;5057090;28;20036;-12
2022/05/28 10:52:40;;;;;;;6.93;4.25;;;22.60;63.90;;;;;;5095543;28;20054;-12
2022/05/28 10:55:14;;;;;;;9.27;4.50;;;22.60;62.80;;;;;;5095213;28;20035;-11
2022/05/28 10:57:48;;;;;;;7.63;4.10;;;22.60;64.50;;;;;;5095183;28;20069;-11
2022/05/28 11:00:17;;;;;;;8.52;4.20;;;22.60;62.80;;;;;;5095031;28;20023;-13
2022/05/28 11:02:58;;;;;;;9.00;4.20;;;22.80;61.80;;;;;;5095426;28;20059;-11
2022/05/28 11:05:42;;;;;;;10.20;4.20;;;22.90;60.10;;;;;;5095180;28;20078;-11
2022/05/28 11:08:13;;;;;;;8.25;4.47;;;22.90;60.10;;;;;;5093757;28;20032;-11
2022/05/28 11:10:57;;;;;;;12.10;5.00;;;22.90;60.00;;;;;;5095478;28;20555;-12
2022/05/28 11:13:49;;;;;;;8.00;4.00;;;22.80;60.40;;;;;;5094844;28;20040;-11
2022/05/28 11:16:46;;;;;;;6.72;4.00;;;22.80;60.80;;;;;;5095438;28;20035;-11
2022/05/28 11:19:49;;;;;;;7.68;4.05;;;22.70;60.60;;;;;;5094763;28;20090;-11
2022/05/28 11:22:36;;;;;;;8.48;3.80;;;22.90;61.40;;;;;;5094518;28;20070;-11
2022/05/28 11:25:28;;;;;;;8.13;4.20;;;22.90;59.70;;;;;;5093488;28;20081;-11
2022/05/28 11:28:32;;;;;;;9.77;4.10;;;22.90;59.90;;;;;;5094320;28;20491;-11
2022/05/28 11:31:11;;;;;;;7.15;3.78;;;23.00;60.90;;;;;;5094862;28;20028;-12
2022/05/28 11:33:43;;;;;;;8.52;4.28;;;23.00;59.80;;;;;;5094292;28;20552;-12
2022/05/28 11:36:12;;;;;;;7.18;3.53;;;22.90;59.50;;;;;;5094428;28;20058;-11
2022/05/28 11:38:56;;;;;;;8.60;3.72;;;22.80;59.10;;;;;;5094435;28;20027;-12
2022/05/28 11:41:34;;;;;;;5.82;3.38;;;22.80;59.20;;;;;;5094317;28;20024;-11
2022/05/28 11:44:15;;;;;;;7.82;3.78;;;22.80;60.70;;;;;;5094056;28;20059;-12
2022/05/28 11:46:56;;;;;;;8.57;4.03;;;22.90;60.30;;;;;;5094544;28;20036;-11
2022/05/28 11:52:21;;;;;;;9.93;4.00;;;23.10;59.10;;;;;;5094500;28;20043;-11
2022/05/28 11:54:53;;;;;;;13.20;3.83;;;23.00;57.40;;;;;;5092726;28;20024;-12
2022/05/28 11:57:32;;;;;;;4.90;3.30;;;22.90;58.20;;;;;;5094328;28;20161;-12
2022/05/28 12:00:02;;;;;;;6.18;3.47;;;23.00;58.10;;;;;;5092857;28;20487;-11
2022/05/28 12:02:33;;;;;;;6.63;3.45;;;23.10;58.00;;;;;;5093591;28;20123;-12
2022/05/28 12:04:59;;;;;;;8.82;3.35;;;23.10;56.70;;;;;;5093830;28;20476;-11
2022/05/28 12:07:36;;;;;;;6.72;2.90;;;23.20;56.60;;;;;;5093795;28;20039;-12
2022/05/28 12:10:10;;;;;;;9.98;3.30;;;23.30;56.80;;;;;;5093860;28;20376;-12
2022/05/28 12:12:53;;;;;;;6.05;3.20;;;23.60;56.80;;;;;;5093642;28;20026;-11
2022/05/28 12:15:26;;;;;;;6.57;3.00;;;23.90;54.80;;;;;;5094169;28;20145;-12
2022/05/28 12:18:06;;;;;;;6.15;3.10;;;24.20;53.90;;;;;;5093960;28;20024;-12
2022/05/28 12:20:35;;;;;;;5.53;2.88;;;24.50;52.50;;;;;;5093455;28;20024;-12
2022/05/28 12:23:04;;;;;;;5.20;3.10;;;24.80;52.70;;;;;;5094206;28;20051;-11
2022/05/28 12:25:37;;;;;;;6.35;3.10;;;24.90;51.40;;;;;;5093463;28;20101;-13
2022/05/28 12:28:11;;;;;;;10.63;3.13;;;24.80;51.00;;;;;;5094214;28;20038;-13
2022/05/28 12:30:42;;;;;;;7.78;2.78;;;24.60;51.00;;;;;;5093781;28;20285;-12
2022/05/28 12:33:53;;;;;;;5.13;3.08;;;24.40;50.90;;;;;;5093423;28;20027;-12
2022/05/28 12:36:27;;;;;;;8.00;2.95;;;24.20;51.60;;;;;;5083682;28;20134;-12
2022/05/28 12:38:56;;;;;;;6.07;3.10;;;24.20;51.60;;;;;;5093719;28;20133;-13
2022/05/28 12:41:27;;;;;;;8.35;3.03;;;24.00;52.00;;;;;;5093628;28;20361;-12
2022/05/28 12:44:03;;;;;;;5.80;2.80;;;23.90;52.10;;;;;;5093208;28;20135;-12
2022/05/28 12:46:48;;;;;;;6.15;2.78;;;23.70;52.60;;;;;;5093225;28;20040;-12
2022/05/28 12:49:44;;;;;;;8.43;3.03;;;23.60;52.00;;;;;;5093283;28;20035;-12
2022/05/28 12:52:48;;;;;;;7.80;2.92;;;23.40;51.50;;;;;;5093237;28;20020;-12
2022/05/28 12:55:19;;;;;;;7.57;3.15;;;23.20;51.90;;;;;;5089436;28;20043;-12
2022/05/28 12:58:06;;;;;;;7.60;3.20;;;22.90;51.60;;;;;;5093288;28;20379;-12
2022/05/28 13:00:45;;;;;;;6.20;3.20;;;22.80;52.30;;;;;;5094060;28;20024;-12